Time;durP1;ratioP1;P1;durP2;ratioP2;P2;SDS_P1;SDS_P2;PMS_P1;PMS_P2;Temp;Humidity;BMP_temperature;BMP_pressure;BME280_temperature;BME280_humidity;BME280_pressure;Samples;Min_cycle;Max_cycle;Signal;HPM_P1;HPM_P2
2021/01/08 00:01:54;;;;;;;2.53;1.90;;;;;;;;;;5032899;28;20204;-48
2021/01/08 00:04:21;;;;;;;2.10;1.90;;;;;;;;;;5032254;28;20452;-49
2021/01/08 00:06:47;;;;;;;2.28;1.92;;;;;;;;;;5024720;28;20183;-48
2021/01/08 00:09:13;;;;;;;2.50;1.83;;;;;;;;;;5015157;28;20468;-49
2021/01/08 00:11:39;;;;;;;2.08;1.98;;;;;;;;;;5022966;28;20183;-48
2021/01/08 00:14:05;;;;;;;2.03;1.88;;;;;;;;;;5033479;28;20196;-48
2021/01/08 00:16:34;;;;;;;2.10;1.90;;;;;;;;;;5028983;28;20181;-48
2021/01/08 00:19:00;;;;;;;2.22;2.03;;;;;;;;;;5021436;28;20266;-48
2021/01/08 00:21:35;;;;;;;2.40;2.03;;;;;;;;;;5028311;28;20267;-48
2021/01/08 00:24:01;;;;;;;2.22;1.80;;;;;;;;;;5024193;28;20210;-48
2021/01/08 00:26:27;;;;;;;2.10;2.00;;;;;;;;;;5031192;28;20175;-49
2021/01/08 00:28:53;;;;;;;2.97;1.80;;;;;;;;;;5022380;28;20585;-48
2021/01/08 00:31:19;;;;;;;1.85;1.75;;;;;;;;;;5018835;28;20180;-48
2021/01/08 00:33:45;;;;;;;1.88;1.77;;;;;;;;;;5023673;28;20561;-48
2021/01/08 00:36:11;;;;;;;1.73;1.63;;;;;;;;;;5018691;28;20230;-48
2021/01/08 00:38:37;;;;;;;2.30;1.70;;;;;;;;;;5024631;28;20610;-49
2021/01/08 00:41:03;;;;;;;1.73;1.63;;;;;;;;;;5026743;28;20188;-48
2021/01/08 00:43:29;;;;;;;1.92;1.80;;;;;;;;;;5015015;28;20788;-49
2021/01/08 00:45:55;;;;;;;1.92;1.83;;;;;;;;;;5014942;28;20280;-48
2021/01/08 00:48:21;;;;;;;1.70;1.60;;;;;;;;;;5031603;28;20184;-49
2021/01/08 00:50:47;;;;;;;2.40;1.90;;;;;;;;;;5029536;28;20180;-48
2021/01/08 00:53:13;;;;;;;2.05;1.90;;;;;;;;;;5036932;28;20176;-48
2021/01/08 00:55:38;;;;;;;2.25;1.98;;;;;;;;;;5019849;28;20445;-49
2021/01/08 00:58:04;;;;;;;2.42;1.63;;;;;;;;;;5033834;28;20220;-49
2021/01/08 01:00:30;;;;;;;8.38;2.00;;;;;;;;;;5026782;28;20195;-48
2021/01/08 01:02:57;;;;;;;2.08;1.88;;;;;;;;;;5038931;28;20171;-49
2021/01/08 01:05:22;;;;;;;1.90;1.80;;;;;;;;;;5033298;28;20188;-48
2021/01/08 01:07:49;;;;;;;2.55;1.60;;;;;;;;;;5020680;28;20181;-49
2021/01/08 01:10:15;;;;;;;1.75;1.65;;;;;;;;;;5034004;28;20630;-48
2021/01/08 01:12:41;;;;;;;2.35;1.63;;;;;;;;;;5034915;28;20199;-48
2021/01/08 01:15:07;;;;;;;2.65;1.80;;;;;;;;;;5021801;28;20302;-48
2021/01/08 01:17:39;;;;;;;2.05;1.85;;;;;;;;;;5031993;28;20255;-48
2021/01/08 01:20:05;;;;;;;1.83;1.73;;;;;;;;;;5035911;28;20206;-48
2021/01/08 01:22:31;;;;;;;1.83;1.73;;;;;;;;;;5026889;28;20180;-48
2021/01/08 01:24:57;;;;;;;2.28;1.90;;;;;;;;;;5057172;28;20167;-49
2021/01/08 01:27:23;;;;;;;1.60;1.50;;;;;;;;;;5043421;28;20180;-48
2021/01/08 01:29:49;;;;;;;1.90;1.77;;;;;;;;;;5017521;28;20180;-49
2021/01/08 01:32:15;;;;;;;1.50;1.40;;;;;;;;;;5033144;28;20211;-48
2021/01/08 01:34:41;;;;;;;1.98;1.85;;;;;;;;;;5021578;28;20172;-48
2021/01/08 01:37:07;;;;;;;2.05;1.88;;;;;;;;;;5036774;28;20242;-49
2021/01/08 01:39:33;;;;;;;2.55;1.85;;;;;;;;;;5036793;28;20575;-48
2021/01/08 01:41:59;;;;;;;1.88;1.77;;;;;;;;;;5032395;28;20188;-48
2021/01/08 01:44:25;;;;;;;1.80;1.70;;;;;;;;;;5028025;28;20180;-48
2021/01/08 01:46:51;;;;;;;1.55;1.45;;;;;;;;;;5031121;28;20193;-49
2021/01/08 01:49:17;;;;;;;1.52;1.42;;;;;;;;;;5019311;28;20192;-49
2021/01/08 01:51:43;;;;;;;1.83;1.73;;;;;;;;;;5019322;28;20206;-48
2021/01/08 01:54:09;;;;;;;1.50;1.40;;;;;;;;;;5022154;28;20192;-48
2021/01/08 01:56:35;;;;;;;1.60;1.50;;;;;;;;;;5019635;28;20239;-47
2021/01/08 01:59:01;;;;;;;1.70;1.60;;;;;;;;;;5022792;28;20215;-48
2021/01/08 02:01:27;;;;;;;1.63;1.52;;;;;;;;;;5029249;28;20211;-48
2021/01/08 02:03:57;;;;;;;1.70;1.60;;;;;;;;;;5028213;28;20425;-49
2021/01/08 02:06:34;;;;;;;1.70;1.60;;;;;;;;;;5022604;28;20176;-49
2021/01/08 02:09:02;;;;;;;1.60;1.50;;;;;;;;;;5015901;28;20187;-48
2021/01/08 02:11:29;;;;;;;1.50;1.40;;;;;;;;;;5026880;28;20191;-49
2021/01/08 02:14:05;;;;;;;1.85;1.75;;;;;;;;;;5028337;28;20196;-48
2021/01/08 02:16:31;;;;;;;1.25;1.17;;;;;;;;;;5033281;28;20175;-47
2021/01/08 02:18:58;;;;;;;1.95;1.75;;;;;;;;;;5027830;28;20262;-48
2021/01/08 02:21:29;;;;;;;1.50;1.40;;;;;;;;;;5028475;28;20179;-49
2021/01/08 02:23:59;;;;;;;1.38;1.27;;;;;;;;;;5033141;28;20255;-48
2021/01/08 02:26:26;;;;;;;1.70;1.60;;;;;;;;;;5031029;28;20187;-48
2021/01/08 02:28:52;;;;;;;1.60;1.50;;;;;;;;;;5035622;28;20585;-48
2021/01/08 02:31:19;;;;;;;1.65;1.55;;;;;;;;;;5022757;28;20183;-48
2021/01/08 02:33:45;;;;;;;1.65;1.55;;;;;;;;;;5035382;28;20219;-48
2021/01/08 02:36:11;;;;;;;1.60;1.50;;;;;;;;;;5029342;28;20188;-49
2021/01/08 02:38:38;;;;;;;1.25;1.25;;;;;;;;;;5023114;28;20222;-49
2021/01/08 02:41:06;;;;;;;1.80;1.70;;;;;;;;;;5028180;28;20556;-48
2021/01/08 02:43:34;;;;;;;1.45;1.35;;;;;;;;;;5029045;28;20213;-49
2021/01/08 02:46:00;;;;;;;1.30;1.20;;;;;;;;;;5025640;28;20184;-48
2021/01/08 02:48:26;;;;;;;1.42;1.33;;;;;;;;;;5034194;28;20194;-48
2021/01/08 02:50:53;;;;;;;1.70;1.60;;;;;;;;;;5019815;28;20338;-49
2021/01/08 02:53:20;;;;;;;1.60;1.50;;;;;;;;;;5023822;28;20491;-49
2021/01/08 02:55:52;;;;;;;1.23;1.23;;;;;;;;;;5033809;28;20198;-47
2021/01/08 02:58:19;;;;;;;1.48;1.38;;;;;;;;;;5028489;28;20310;-48
2021/01/08 03:00:45;;;;;;;1.25;1.15;;;;;;;;;;5016771;28;20200;-49
2021/01/08 03:03:11;;;;;;;1.60;1.50;;;;;;;;;;5020554;28;20187;-48
2021/01/08 03:05:37;;;;;;;1.50;1.40;;;;;;;;;;5033035;28;20436;-48
2021/01/08 03:08:03;;;;;;;2.35;1.52;;;;;;;;;;5020905;28;20455;-48
2021/01/08 03:10:29;;;;;;;1.42;1.33;;;;;;;;;;5017610;28;20184;-48
2021/01/08 03:12:58;;;;;;;1.58;1.48;;;;;;;;;;5032102;28;20184;-48
2021/01/08 03:15:24;;;;;;;1.20;1.20;;;;;;;;;;5015071;28;20164;-49
2021/01/08 03:17:51;;;;;;;1.55;1.45;;;;;;;;;;5032968;28;20238;-49
2021/01/08 03:20:17;;;;;;;1.50;1.40;;;;;;;;;;5016290;28;20184;-48
2021/01/08 03:22:43;;;;;;;1.50;1.40;;;;;;;;;;5029276;28;20246;-47
2021/01/08 03:25:09;;;;;;;1.25;1.25;;;;;;;;;;5015424;28;20189;-48
2021/01/08 03:27:35;;;;;;;1.40;1.30;;;;;;;;;;5030467;28;20180;-48
2021/01/08 03:30:01;;;;;;;1.40;1.30;;;;;;;;;;5035279;28;20175;-48
2021/01/08 03:32:27;;;;;;;1.38;1.27;;;;;;;;;;5021011;28;20183;-48
2021/01/08 03:34:53;;;;;;;1.27;1.20;;;;;;;;;;5031047;28;20179;-48
2021/01/08 03:37:19;;;;;;;1.20;1.10;;;;;;;;;;5027761;28;20183;-49
2021/01/08 03:39:45;;;;;;;1.30;1.20;;;;;;;;;;5016794;28;20275;-48
2021/01/08 03:42:11;;;;;;;1.38;1.27;;;;;;;;;;5035366;28;20227;-48
2021/01/08 03:44:37;;;;;;;1.30;1.20;;;;;;;;;;5018413;28;20181;-48
2021/01/08 03:47:03;;;;;;;1.45;1.35;;;;;;;;;;5024229;28;20185;-48
2021/01/08 03:49:29;;;;;;;1.30;1.20;;;;;;;;;;5032916;28;20191;-48
2021/01/08 03:51:55;;;;;;;1.17;1.17;;;;;;;;;;5033603;28;20187;-48
2021/01/08 03:54:21;;;;;;;1.20;1.10;;;;;;;;;;5018717;28;20292;-48
2021/01/08 03:56:47;;;;;;;1.42;1.33;;;;;;;;;;5026241;28;20364;-48
2021/01/08 03:59:13;;;;;;;1.40;1.30;;;;;;;;;;5034297;28;20333;-48
2021/01/08 04:01:39;;;;;;;1.30;1.20;;;;;;;;;;5032761;28;20203;-49
2021/01/08 04:04:05;;;;;;;1.25;1.25;;;;;;;;;;5029855;28;20187;-49
2021/01/08 04:06:31;;;;;;;1.20;1.10;;;;;;;;;;5018517;28;20195;-48
2021/01/08 04:08:57;;;;;;;1.52;1.42;;;;;;;;;;5022714;28;20238;-48
2021/01/08 04:11:23;;;;;;;1.40;1.30;;;;;;;;;;5019363;28;20259;-49
2021/01/08 04:13:49;;;;;;;1.13;1.10;;;;;;;;;;5023041;28;20612;-48
2021/01/08 04:16:15;;;;;;;1.30;1.23;;;;;;;;;;5030534;28;20335;-49
2021/01/08 04:18:41;;;;;;;1.30;1.20;;;;;;;;;;5031875;28;20506;-48
2021/01/08 04:21:07;;;;;;;1.25;1.17;;;;;;;;;;5031816;28;20195;-48
2021/01/08 04:23:33;;;;;;;1.33;1.23;;;;;;;;;;5016463;28;20192;-48
2021/01/08 04:25:59;;;;;;;1.30;1.20;;;;;;;;;;5022597;28;20180;-49
2021/01/08 04:28:25;;;;;;;1.27;1.17;;;;;;;;;;5019040;28;20188;-49
2021/01/08 04:30:51;;;;;;;1.27;1.23;;;;;;;;;;5034655;28;20195;-48
2021/01/08 04:33:17;;;;;;;1.30;1.20;;;;;;;;;;5026099;28;20179;-48
2021/01/08 04:35:43;;;;;;;1.00;1.00;;;;;;;;;;5040064;28;20251;-48
2021/01/08 04:38:09;;;;;;;1.15;1.13;;;;;;;;;;5036123;28;20736;-49
2021/01/08 04:40:34;;;;;;;1.02;1.02;;;;;;;;;;5038061;28;20186;-48
2021/01/08 04:43:00;;;;;;;1.30;1.30;;;;;;;;;;5031897;28;20179;-49
2021/01/08 04:45:26;;;;;;;1.20;1.20;;;;;;;;;;5017635;28;20175;-49
2021/01/08 04:47:53;;;;;;;1.00;1.00;;;;;;;;;;5027149;28;20452;-48
2021/01/08 04:50:20;;;;;;;1.02;1.02;;;;;;;;;;5018202;28;20185;-48
2021/01/08 04:52:46;;;;;;;1.60;1.15;;;;;;;;;;5030026;28;20195;-49
2021/01/08 04:55:13;;;;;;;1.17;1.08;;;;;;;;;;5035545;28;20180;-49
2021/01/08 04:57:39;;;;;;;1.00;1.00;;;;;;;;;;5025159;28;20266;-49
2021/01/08 05:00:06;;;;;;;0.98;0.98;;;;;;;;;;5032932;28;20208;-48
2021/01/08 05:02:32;;;;;;;1.00;1.00;;;;;;;;;;5038488;28;20203;-49
2021/01/08 05:04:58;;;;;;;0.80;0.80;;;;;;;;;;5023280;28;20212;-49
2021/01/08 05:07:26;;;;;;;1.00;1.00;;;;;;;;;;5028394;28;20187;-48
2021/01/08 05:09:52;;;;;;;0.95;0.95;;;;;;;;;;5038831;28;20552;-48
2021/01/08 05:12:18;;;;;;;1.08;1.08;;;;;;;;;;5037056;28;20183;-49
2021/01/08 05:14:44;;;;;;;0.98;0.98;;;;;;;;;;5019478;28;20200;-48
2021/01/08 05:17:10;;;;;;;1.02;0.80;;;;;;;;;;5025149;28;20271;-49
2021/01/08 05:19:37;;;;;;;1.10;1.10;;;;;;;;;;5036324;28;20294;-49
2021/01/08 05:22:04;;;;;;;1.00;0.90;;;;;;;;;;5033372;28;20204;-49
2021/01/08 05:24:30;;;;;;;1.20;1.10;;;;;;;;;;5035101;28;20458;-48
2021/01/08 05:27:01;;;;;;;4.25;1.10;;;;;;;;;;5026271;28;20184;-48
2021/01/08 05:29:28;;;;;;;1.65;1.13;;;;;;;;;;5034298;28;20184;-49
2021/01/08 05:31:54;;;;;;;1.35;1.10;;;;;;;;;;5033362;28;20189;-48
2021/01/08 05:34:29;;;;;;;1.77;1.02;;;;;;;;;;5031054;28;20190;-48
2021/01/08 05:36:57;;;;;;;1.55;1.20;;;;;;;;;;5046610;28;20420;-48
2021/01/08 05:39:23;;;;;;;4.85;1.40;;;;;;;;;;5021087;28;20620;-49
2021/01/08 05:41:49;;;;;;;1.27;0.95;;;;;;;;;;5022945;28;20225;-48
2021/01/08 05:44:16;;;;;;;2.83;1.30;;;;;;;;;;5024276;28;20442;-49
2021/01/08 05:46:42;;;;;;;3.92;1.33;;;;;;;;;;5018494;28;20592;-48
2021/01/08 05:49:08;;;;;;;2.65;1.30;;;;;;;;;;5021362;28;20477;-49
2021/01/08 05:51:38;;;;;;;3.08;1.35;;;;;;;;;;5020993;28;20186;-49
2021/01/08 05:54:05;;;;;;;2.30;1.30;;;;;;;;;;5023482;28;20223;-48
2021/01/08 05:56:38;;;;;;;2.92;1.58;;;;;;;;;;5025969;28;20699;-49
2021/01/08 05:59:04;;;;;;;4.22;1.55;;;;;;;;;;5020321;28;20584;-47
2021/01/08 06:01:32;;;;;;;1.60;1.27;;;;;;;;;;5018241;28;20183;-48
2021/01/08 06:03:58;;;;;;;3.03;1.40;;;;;;;;;;5021151;28;20231;-48
2021/01/08 06:06:24;;;;;;;1.90;1.23;;;;;;;;;;5018208;28;20184;-48
2021/01/08 06:08:54;;;;;;;3.15;1.50;;;;;;;;;;5035683;28;20740;-48
2021/01/08 06:11:31;;;;;;;1.88;1.23;;;;;;;;;;5027833;28;20179;-49
2021/01/08 06:14:01;;;;;;;1.42;1.20;;;;;;;;;;5024039;28;20277;-49
2021/01/08 06:16:35;;;;;;;2.05;1.25;;;;;;;;;;5028413;28;20187;-49
2021/01/08 06:19:01;;;;;;;1.67;1.15;;;;;;;;;;5035569;28;20288;-48
2021/01/08 06:21:36;;;;;;;1.67;1.17;;;;;;;;;;5033999;28;20180;-49
2021/01/08 06:24:02;;;;;;;1.80;1.08;;;;;;;;;;5026985;28;20266;-48
2021/01/08 06:26:30;;;;;;;1.30;1.20;;;;;;;;;;5032580;28;20567;-48
2021/01/08 06:29:00;;;;;;;1.63;1.02;;;;;;;;;;5026287;28;20206;-49
2021/01/08 06:31:31;;;;;;;1.42;1.00;;;;;;;;;;5032244;28;20188;-48
2021/01/08 06:34:00;;;;;;;1.67;1.02;;;;;;;;;;5027086;28;20188;-48
2021/01/08 06:36:27;;;;;;;1.67;1.20;;;;;;;;;;5017977;28;20239;-48
2021/01/08 06:38:54;;;;;;;1.90;1.15;;;;;;;;;;5029342;28;20509;-49
2021/01/08 06:41:20;;;;;;;2.95;1.15;;;;;;;;;;5034499;28;20286;-49
2021/01/08 06:43:48;;;;;;;1.33;1.10;;;;;;;;;;5027136;28;20188;-48
2021/01/08 06:46:35;;;;;;;1.48;1.10;;;;;;;;;;5020266;28;20175;-49
2021/01/08 06:49:02;;;;;;;2.30;1.20;;;;;;;;;;5026266;28;20180;-48
2021/01/08 06:51:31;;;;;;;2.05;0.93;;;;;;;;;;5034048;28;20186;-49
2021/01/08 06:53:59;;;;;;;2.33;1.20;;;;;;;;;;5018404;28;20194;-49
2021/01/08 06:56:29;;;;;;;1.25;0.90;;;;;;;;;;5017111;28;20215;-48
2021/01/08 06:58:56;;;;;;;2.13;1.33;;;;;;;;;;5022746;28;20306;-49
2021/01/08 07:01:41;;;;;;;1.95;1.10;;;;;;;;;;5022044;28;20539;-49
2021/01/08 07:04:09;;;;;;;1.80;1.40;;;;;;;;;;5031411;28;20214;-48
2021/01/08 07:06:37;;;;;;;1.55;1.15;;;;;;;;;;5017575;28;20564;-48
2021/01/08 07:09:07;;;;;;;1.30;1.05;;;;;;;;;;5016367;28;20262;-49
2021/01/08 07:11:34;;;;;;;1.23;1.05;;;;;;;;;;5019933;28;20191;-48
2021/01/08 07:14:14;;;;;;;1.20;1.10;;;;;;;;;;5031644;28;20274;-49
2021/01/08 07:16:44;;;;;;;1.10;0.90;;;;;;;;;;5033650;28;20454;-48
2021/01/08 07:19:11;;;;;;;1.25;1.15;;;;;;;;;;5031898;28;20204;-49
2021/01/08 07:21:42;;;;;;;0.98;0.93;;;;;;;;;;5024546;28;20180;-49
2021/01/08 07:24:09;;;;;;;2.17;1.00;;;;;;;;;;5031693;28;20180;-47
2021/01/08 07:26:35;;;;;;;1.40;0.93;;;;;;;;;;5033388;28;20218;-48
2021/01/08 07:29:02;;;;;;;1.20;1.00;;;;;;;;;;5027927;28;20237;-48
2021/01/08 07:31:32;;;;;;;0.90;0.90;;;;;;;;;;5034521;28;20251;-48
2021/01/08 07:33:59;;;;;;;1.23;0.85;;;;;;;;;;5016968;28;20191;-49
2021/01/08 07:36:26;;;;;;;0.80;0.80;;;;;;;;;;5015964;28;20168;-49
2021/01/08 07:38:52;;;;;;;3.55;0.95;;;;;;;;;;5029664;28;20219;-48
2021/01/08 07:41:31;;;;;;;1.90;1.00;;;;;;;;;;5034309;28;20278;-48
2021/01/08 07:43:57;;;;;;;1.25;0.98;;;;;;;;;;5023141;28;20562;-48
2021/01/08 07:46:27;;;;;;;1.00;0.90;;;;;;;;;;5029579;28;20209;-48
2021/01/08 07:48:53;;;;;;;1.48;1.13;;;;;;;;;;5019345;28;20586;-47
2021/01/08 07:51:21;;;;;;;1.60;0.90;;;;;;;;;;5015195;28;20188;-49
2021/01/08 07:53:49;;;;;;;2.90;1.00;;;;;;;;;;5023643;28;20177;-47
2021/01/08 07:56:15;;;;;;;0.70;0.70;;;;;;;;;;5015541;28;20602;-49
2021/01/08 07:58:42;;;;;;;1.08;0.85;;;;;;;;;;5024088;28;20204;-49
2021/01/08 08:01:08;;;;;;;1.15;0.80;;;;;;;;;;5034338;28;20160;-49
2021/01/08 08:03:35;;;;;;;1.13;1.00;;;;;;;;;;5028410;28;20491;-48
2021/01/08 08:06:01;;;;;;;1.10;0.90;;;;;;;;;;5025259;28;20555;-49
2021/01/08 08:08:27;;;;;;;1.00;0.80;;;;;;;;;;5019168;28;20439;-49
2021/01/08 08:10:53;;;;;;;0.98;0.90;;;;;;;;;;5033474;28;20172;-48
2021/01/08 08:13:30;;;;;;;0.85;0.70;;;;;;;;;;5018540;28;20239;-49
2021/01/08 08:15:56;;;;;;;0.80;0.80;;;;;;;;;;5019323;28;20551;-48
2021/01/08 08:18:22;;;;;;;0.80;0.80;;;;;;;;;;5028315;28;20184;-48
2021/01/08 08:20:48;;;;;;;0.82;0.82;;;;;;;;;;5033911;28;20180;-49
2021/01/08 08:23:15;;;;;;;0.70;0.70;;;;;;;;;;5020780;28;20563;-49
2021/01/08 08:25:41;;;;;;;0.80;0.80;;;;;;;;;;5030557;28;20208;-49
2021/01/08 08:28:08;;;;;;;0.88;0.88;;;;;;;;;;5021903;28;20185;-48
2021/01/08 08:30:34;;;;;;;1.00;0.90;;;;;;;;;;5028786;28;20456;-49
2021/01/08 08:33:00;;;;;;;1.25;0.80;;;;;;;;;;5031781;28;20196;-49
2021/01/08 08:35:26;;;;;;;1.05;0.85;;;;;;;;;;5027933;28;20164;-48
2021/01/08 08:37:53;;;;;;;1.27;0.88;;;;;;;;;;5034195;28;20606;-48
2021/01/08 08:40:27;;;;;;;1.65;0.90;;;;;;;;;;5033542;28;20219;-49
2021/01/08 08:42:54;;;;;;;0.80;0.80;;;;;;;;;;5033968;28;20182;-48
2021/01/08 08:45:21;;;;;;;0.90;0.80;;;;;;;;;;5024043;28;20572;-48
2021/01/08 08:47:48;;;;;;;0.95;0.73;;;;;;;;;;5022925;28;20184;-49
2021/01/08 08:50:15;;;;;;;1.25;0.77;;;;;;;;;;5032797;28;20180;-49
2021/01/08 08:52:41;;;;;;;2.45;1.05;;;;;;;;;;5034496;28;20195;-48
2021/01/08 08:55:07;;;;;;;1.02;0.80;;;;;;;;;;5020571;28;20180;-48
2021/01/08 08:57:33;;;;;;;0.73;0.73;;;;;;;;;;5016870;28;20183;-49
2021/01/08 08:59:59;;;;;;;1.38;0.82;;;;;;;;;;5034205;28;20200;-49
2021/01/08 09:02:26;;;;;;;0.95;0.82;;;;;;;;;;5032524;28;20184;-48
2021/01/08 09:04:56;;;;;;;1.60;0.80;;;;;;;;;;5020935;28;20258;-48
2021/01/08 09:07:29;;;;;;;0.73;0.73;;;;;;;;;;5023839;28;20187;-49
2021/01/08 09:09:59;;;;;;;1.00;0.70;;;;;;;;;;5017450;28;20188;-49
2021/01/08 09:12:34;;;;;;;1.00;0.88;;;;;;;;;;5031347;28;20542;-49
2021/01/08 09:15:20;;;;;;;1.00;0.90;;;;;;;;;;5027000;28;20201;-49
2021/01/08 09:17:47;;;;;;;0.90;0.80;;;;;;;;;;5023784;28;20199;-48
2021/01/08 09:20:15;;;;;;;1.02;0.82;;;;;;;;;;5036291;28;20315;-48
2021/01/08 09:22:41;;;;;;;0.75;0.70;;;;;;;;;;5033983;28;20190;-49
2021/01/08 09:25:09;;;;;;;0.80;0.80;;;;;;;;;;5029745;28;20198;-49
2021/01/08 09:27:35;;;;;;;0.98;0.80;;;;;;;;;;5037363;28;20174;-48
2021/01/08 09:30:11;;;;;;;0.88;0.88;;;;;;;;;;5021691;28;20184;-48
2021/01/08 09:32:37;;;;;;;0.95;0.85;;;;;;;;;;5035230;28;20180;-48
2021/01/08 09:35:05;;;;;;;0.60;0.60;;;;;;;;;;5025748;28;20215;-48
2021/01/08 09:37:38;;;;;;;1.45;0.90;;;;;;;;;;5028154;28;20231;-48
2021/01/08 09:40:14;;;;;;;1.05;0.68;;;;;;;;;;5017328;28;20211;-49
2021/01/08 09:42:41;;;;;;;0.82;0.80;;;;;;;;;;5026917;28;20270;-48
2021/01/08 09:45:20;;;;;;;1.05;0.85;;;;;;;;;;5021227;28;20180;-49
2021/01/08 09:47:46;;;;;;;0.75;0.75;;;;;;;;;;5018061;28;20184;-48
2021/01/08 09:50:21;;;;;;;0.60;0.60;;;;;;;;;;5036153;28;20176;-48
2021/01/08 09:52:49;;;;;;;0.70;0.70;;;;;;;;;;5025031;28;20184;-49
2021/01/08 09:55:25;;;;;;;0.80;0.80;;;;;;;;;;5019588;28;20211;-48
2021/01/08 09:57:55;;;;;;;0.77;0.70;;;;;;;;;;5036008;28;20183;-49
2021/01/08 10:00:26;;;;;;;0.60;0.60;;;;;;;;;;5032668;28;20265;-48
2021/01/08 10:02:52;;;;;;;0.60;0.60;;;;;;;;;;5028244;28;20195;-47
2021/01/08 10:05:35;;;;;;;1.42;0.75;;;;;;;;;;5027953;28;20551;-49
2021/01/08 10:08:02;;;;;;;2.15;0.68;;;;;;;;;;5033350;28;20573;-49
2021/01/08 10:10:28;;;;;;;2.38;1.00;;;;;;;;;;5021015;28;20184;-49
2021/01/08 10:12:54;;;;;;;2.75;0.93;;;;;;;;;;5016838;28;20184;-48
2021/01/08 10:15:33;;;;;;;2.40;0.82;;;;;;;;;;5020480;28;20566;-49
2021/01/08 10:18:06;;;;;;;1.73;0.85;;;;;;;;;;5023961;28;20180;-48
2021/01/08 10:20:39;;;;;;;2.78;0.85;;;;;;;;;;5029119;28;20246;-49
2021/01/08 10:23:09;;;;;;;0.95;0.60;;;;;;;;;;5016656;28;20239;-48
2021/01/08 10:25:35;;;;;;;1.15;0.90;;;;;;;;;;5025803;28;20168;-48
2021/01/08 10:28:18;;;;;;;1.85;0.90;;;;;;;;;;5022982;28;20362;-49
2021/01/08 10:30:45;;;;;;;1.92;0.80;;;;;;;;;;5024498;28;20259;-48
2021/01/08 10:33:12;;;;;;;1.52;0.80;;;;;;;;;;5032277;28;20172;-49
2021/01/08 10:35:38;;;;;;;2.97;1.00;;;;;;;;;;5023038;28;20185;-48
2021/01/08 10:38:04;;;;;;;1.67;1.17;;;;;;;;;;5021320;28;20180;-48
2021/01/08 10:40:30;;;;;;;4.53;0.88;;;;;;;;;;5035347;28;20203;-48
2021/01/08 10:42:57;;;;;;;2.78;1.05;;;;;;;;;;5023713;28;20183;-48
2021/01/08 10:45:23;;;;;;;0.95;0.80;;;;;;;;;;5022913;28;20586;-48
2021/01/08 10:47:49;;;;;;;1.80;0.82;;;;;;;;;;5034126;28;21943;-49
2021/01/08 10:50:16;;;;;;;1.00;0.77;;;;;;;;;;5025941;28;20644;-48
2021/01/08 10:52:43;;;;;;;2.80;1.10;;;;;;;;;;5025371;28;20441;-49
2021/01/08 10:55:09;;;;;;;1.63;0.98;;;;;;;;;;5027741;28;20221;-48
2021/01/08 10:57:36;;;;;;;2.30;0.90;;;;;;;;;;5015653;28;20184;-48
2021/01/08 11:00:03;;;;;;;1.83;1.17;;;;;;;;;;5020208;28;20207;-48
2021/01/08 11:02:29;;;;;;;1.55;1.10;;;;;;;;;;5027315;28;20185;-49
2021/01/08 11:04:55;;;;;;;1.58;1.20;;;;;;;;;;5026717;28;20188;-49
2021/01/08 11:07:21;;;;;;;4.18;1.27;;;;;;;;;;5021434;28;20180;-49
2021/01/08 11:09:47;;;;;;;1.55;1.20;;;;;;;;;;5016880;28;20188;-48
2021/01/08 11:12:13;;;;;;;1.50;1.10;;;;;;;;;;5024677;28;20559;-49
2021/01/08 11:14:39;;;;;;;2.20;1.15;;;;;;;;;;5032669;28;20253;-49
2021/01/08 11:17:05;;;;;;;1.70;1.30;;;;;;;;;;5034093;28;20191;-48
2021/01/08 11:19:31;;;;;;;2.67;1.30;;;;;;;;;;5025016;28;20605;-48
2021/01/08 11:21:57;;;;;;;2.17;1.20;;;;;;;;;;5034978;28;20246;-48
2021/01/08 11:24:24;;;;;;;3.33;1.40;;;;;;;;;;5020770;28;20220;-48
2021/01/08 11:26:50;;;;;;;2.38;1.40;;;;;;;;;;5018421;28;20530;-49
2021/01/08 11:29:16;;;;;;;1.45;1.27;;;;;;;;;;5023009;28;20223;-48
2021/01/08 11:31:42;;;;;;;2.13;1.45;;;;;;;;;;5017975;28;20215;-48
2021/01/08 11:34:09;;;;;;;3.25;1.10;;;;;;;;;;5033000;28;20554;-48
2021/01/08 11:36:35;;;;;;;2.15;1.27;;;;;;;;;;5043207;28;20450;-49
2021/01/08 11:39:01;;;;;;;5.10;1.35;;;;;;;;;;5026610;28;20295;-48
2021/01/08 11:41:27;;;;;;;2.08;1.33;;;;;;;;;;5022730;28;20279;-48
2021/01/08 11:43:53;;;;;;;1.65;1.23;;;;;;;;;;5024046;28;20849;-48
2021/01/08 11:46:23;;;;;;;1.33;1.20;;;;;;;;;;5022830;28;20259;-49
2021/01/08 11:48:53;;;;;;;2.20;1.20;;;;;;;;;;5024364;28;20184;-49
2021/01/08 11:51:25;;;;;;;1.40;1.30;;;;;;;;;;5033792;28;20171;-49
2021/01/08 11:53:54;;;;;;;1.70;1.48;;;;;;;;;;5027449;28;20511;-48
2021/01/08 11:56:31;;;;;;;2.10;1.20;;;;;;;;;;5029931;28;20266;-48
2021/01/08 11:58:57;;;;;;;1.88;1.27;;;;;;;;;;5027284;28;20203;-48
2021/01/08 12:01:24;;;;;;;1.35;1.02;;;;;;;;;;5033803;28;20171;-48
2021/01/08 12:03:50;;;;;;;1.48;1.23;;;;;;;;;;5026820;28;20183;-49
2021/01/08 12:06:17;;;;;;;1.60;1.35;;;;;;;;;;5023988;28;20184;-48
2021/01/08 12:08:43;;;;;;;4.07;1.42;;;;;;;;;;5024424;28;20488;-48
2021/01/08 12:11:09;;;;;;;1.70;1.02;;;;;;;;;;5025114;28;20214;-48
2021/01/08 12:13:35;;;;;;;1.60;1.00;;;;;;;;;;5015142;28;20210;-49
2021/01/08 12:16:01;;;;;;;1.08;1.08;;;;;;;;;;5022538;28;20188;-48
2021/01/08 12:18:27;;;;;;;1.77;1.30;;;;;;;;;;5026901;28;20547;-48
2021/01/08 12:20:53;;;;;;;1.15;1.05;;;;;;;;;;5032126;28;20182;-48
2021/01/08 12:23:19;;;;;;;2.20;1.10;;;;;;;;;;5027514;28;20246;-48
2021/01/08 12:25:45;;;;;;;1.13;0.98;;;;;;;;;;5020502;28;20263;-49
2021/01/08 12:28:11;;;;;;;2.40;1.08;;;;;;;;;;5029379;28;20175;-48
2021/01/08 12:30:37;;;;;;;2.05;1.30;;;;;;;;;;5016925;28;20263;-49
2021/01/08 12:33:04;;;;;;;1.65;1.10;;;;;;;;;;5027410;28;20183;-48
2021/01/08 12:35:30;;;;;;;1.42;1.00;;;;;;;;;;5028692;28;20180;-49
2021/01/08 12:37:57;;;;;;;1.15;1.05;;;;;;;;;;5027124;28;20269;-48
2021/01/08 12:40:23;;;;;;;2.65;1.00;;;;;;;;;;5014647;28;20485;-48
2021/01/08 12:42:52;;;;;;;1.60;1.10;;;;;;;;;;5017224;28;20441;-48
2021/01/08 12:45:18;;;;;;;6.07;1.20;;;;;;;;;;5026476;28;20187;-48
2021/01/08 12:47:44;;;;;;;1.40;1.20;;;;;;;;;;5017576;28;20176;-48
2021/01/08 12:50:10;;;;;;;2.03;1.10;;;;;;;;;;5030344;28;20259;-49
2021/01/08 12:52:36;;;;;;;2.00;1.30;;;;;;;;;;5020299;28;20260;-48
2021/01/08 12:55:03;;;;;;;1.00;0.88;;;;;;;;;;5024942;28;20292;-48
2021/01/08 12:57:29;;;;;;;1.88;1.30;;;;;;;;;;5035950;28;20183;-48
2021/01/08 12:59:55;;;;;;;1.10;0.95;;;;;;;;;;5022589;28;20587;-49
2021/01/08 13:02:21;;;;;;;1.42;1.25;;;;;;;;;;5019679;28;20188;-48
2021/01/08 13:04:47;;;;;;;6.63;2.35;;;;;;;;;;5023914;28;20311;-48
2021/01/08 13:07:13;;;;;;;15.77;4.07;;;;;;;;;;5021602;28;20813;-48
2021/01/08 13:09:39;;;;;;;16.40;4.80;;;;;;;;;;5023379;28;20195;-48
2021/01/08 13:12:06;;;;;;;27.98;6.90;;;;;;;;;;5037310;28;20279;-49
2021/01/08 13:14:32;;;;;;;40.83;8.75;;;;;;;;;;5029498;28;20208;-49
2021/01/08 13:16:59;;;;;;;51.15;10.43;;;;;;;;;;5025125;28;20184;-48
2021/01/08 13:19:25;;;;;;;52.38;11.32;;;;;;;;;;5033529;28;20214;-48
2021/01/08 13:21:56;;;;;;;49.20;11.10;;;;;;;;;;5030944;28;20179;-47
2021/01/08 13:24:22;;;;;;;53.65;12.23;;;;;;;;;;5024772;28;20307;-49
2021/01/08 13:26:49;;;;;;;54.72;12.52;;;;;;;;;;5027559;28;20263;-48
2021/01/08 13:29:15;;;;;;;48.03;12.68;;;;;;;;;;5031503;28;20176;-48
2021/01/08 13:31:46;;;;;;;50.80;13.15;;;;;;;;;;5025995;28;20199;-48
2021/01/08 13:34:12;;;;;;;63.08;14.70;;;;;;;;;;5031502;28;20180;-48
2021/01/08 13:36:39;;;;;;;51.50;12.10;;;;;;;;;;5029144;28;20272;-48
2021/01/08 13:39:08;;;;;;;50.00;11.63;;;;;;;;;;5018074;28;20240;-49
2021/01/08 13:41:35;;;;;;;41.53;11.68;;;;;;;;;;5018206;28;20195;-49
2021/01/08 13:44:01;;;;;;;47.58;11.43;;;;;;;;;;5025356;28;20238;-48
2021/01/08 13:46:30;;;;;;;43.75;12.07;;;;;;;;;;5017249;28;20184;-48
2021/01/08 13:49:00;;;;;;;45.20;11.48;;;;;;;;;;5033914;28;20603;-48
2021/01/08 13:51:27;;;;;;;35.65;10.65;;;;;;;;;;5036660;28;20184;-48
2021/01/08 13:54:00;;;;;;;31.10;10.73;;;;;;;;;;5018832;28;20486;-48
2021/01/08 13:56:27;;;;;;;35.58;10.13;;;;;;;;;;5024214;28;20246;-48
2021/01/08 13:58:55;;;;;;;39.55;10.77;;;;;;;;;;5023685;28;20231;-48
2021/01/08 14:01:22;;;;;;;34.53;9.73;;;;;;;;;;5032180;28;20215;-48
2021/01/08 14:03:48;;;;;;;32.08;9.30;;;;;;;;;;5024434;28;20266;-49
2021/01/08 14:06:21;;;;;;;36.85;9.85;;;;;;;;;;5031620;28;20188;-48
2021/01/08 14:08:48;;;;;;;33.70;9.52;;;;;;;;;;5027861;28;20494;-49
2021/01/08 14:11:33;;;;;;;27.25;8.65;;;;;;;;;;5028075;28;20203;-48
2021/01/08 14:13:59;;;;;;;28.73;9.45;;;;;;;;;;5029110;28;20207;-48
2021/01/08 14:16:26;;;;;;;25.17;8.82;;;;;;;;;;5022669;28;20243;-48
2021/01/08 14:18:53;;;;;;;29.00;9.20;;;;;;;;;;5031883;28;20294;-49
2021/01/08 14:21:24;;;;;;;28.42;9.68;;;;;;;;;;5027540;28;20172;-48
2021/01/08 14:23:50;;;;;;;25.60;8.45;;;;;;;;;;5028474;28;20810;-49
2021/01/08 14:26:25;;;;;;;24.95;8.15;;;;;;;;;;5023607;28;20430;-49
2021/01/08 14:28:52;;;;;;;23.15;8.43;;;;;;;;;;5021934;28;20191;-48
2021/01/08 14:31:28;;;;;;;22.88;7.68;;;;;;;;;;5026083;28;20198;-49
2021/01/08 14:33:55;;;;;;;23.30;8.18;;;;;;;;;;5033195;28;20243;-49
2021/01/08 14:36:22;;;;;;;20.77;7.93;;;;;;;;;;5024784;28;20188;-48
2021/01/08 14:38:48;;;;;;;26.33;7.55;;;;;;;;;;5022948;28;20219;-49
2021/01/08 14:41:14;;;;;;;20.33;7.10;;;;;;;;;;5035332;28;20203;-49
2021/01/08 14:43:40;;;;;;;22.00;8.25;;;;;;;;;;5017606;28;20187;-49